Time;durP1;ratioP1;P1;durP2;ratioP2;P2;SDS_P1;SDS_P2;PMS_P1;PMS_P2;Temp;Humidity;BMP_temperature;BMP_pressure;BME280_temperature;BME280_humidity;BME280_pressure;Samples;Min_cycle;Max_cycle;Signal;HPM_P1;HPM_P2
2023/08/22 00:02:17;;;;;;;1.40;0.75;;;17.50;99.90;;;;;;5048583;28;20056;-59
2023/08/22 00:04:45;;;;;;;5.95;1.13;;;17.40;99.90;;;;;;5054215;28;20048;-60
2023/08/22 00:07:13;;;;;;;6.40;1.33;;;17.30;99.90;;;;;;5045995;28;20057;-61
2023/08/22 00:09:40;;;;;;;2.05;1.00;;;17.20;99.90;;;;;;5048416;28;20434;-61
2023/08/22 00:12:08;;;;;;;4.93;1.10;;;17.20;99.90;;;;;;5045751;28;20059;-61
2023/08/22 00:14:36;;;;;;;2.50;1.08;;;17.10;99.90;;;;;;5039369;28;20052;-61
2023/08/22 00:17:04;;;;;;;5.93;1.10;;;17.10;99.90;;;;;;5037555;28;20052;-61
2023/08/22 00:19:32;;;;;;;3.33;1.30;;;17.00;99.90;;;;;;5034083;28;20048;-61
2023/08/22 00:22:03;;;;;;;2.90;1.10;;;17.00;99.90;;;;;;5032315;28;20052;-61
2023/08/22 00:24:32;;;;;;;2.75;1.40;;;16.90;99.90;;;;;;5050863;28;20056;-61
2023/08/22 00:27:00;;;;;;;5.68;1.00;;;16.90;99.90;;;;;;5029441;28;20053;-61
2023/08/22 00:29:28;;;;;;;3.72;1.17;;;17.00;99.90;;;;;;5043989;28;20400;-62
2023/08/22 00:31:57;;;;;;;5.97;1.08;;;17.00;99.90;;;;;;5047615;28;20472;-61
2023/08/22 00:34:25;;;;;;;5.38;1.35;;;17.00;99.90;;;;;;5045475;28;20041;-61
2023/08/22 00:36:53;;;;;;;3.20;1.10;;;17.00;99.90;;;;;;5046992;28;20052;-61
2023/08/22 00:39:21;;;;;;;6.25;1.30;;;16.90;99.90;;;;;;5046554;28;20048;-60
2023/08/22 00:41:49;;;;;;;2.63;1.05;;;16.90;99.90;;;;;;5046756;28;20408;-61
2023/08/22 00:44:19;;;;;;;3.88;1.10;;;16.90;99.90;;;;;;5043106;28;20578;-60
2023/08/22 00:46:46;;;;;;;4.53;1.63;;;16.80;99.90;;;;;;5047680;28;20060;-60
2023/08/22 00:49:14;;;;;;;4.47;1.25;;;16.80;99.90;;;;;;5043210;28;20041;-61
2023/08/22 00:51:42;;;;;;;7.05;1.20;;;16.70;99.90;;;;;;5029726;28;20049;-61
2023/08/22 00:54:10;;;;;;;9.75;1.58;;;16.70;99.90;;;;;;5044826;28;20041;-61
2023/08/22 00:56:40;;;;;;;5.18;1.38;;;16.70;99.90;;;;;;5030413;28;20053;-62
2023/08/22 00:59:08;;;;;;;3.92;1.60;;;16.60;99.90;;;;;;5046148;28;20053;-61
2023/08/22 01:01:36;;;;;;;4.32;1.38;;;16.60;99.90;;;;;;5043414;28;20041;-60
2023/08/22 01:04:04;;;;;;;4.32;1.52;;;16.60;99.90;;;;;;5041996;28;20045;-60
2023/08/22 01:07:11;;;;;;;6.90;1.58;;;16.70;99.90;;;;;;5043144;28;20049;-61
2023/08/22 01:09:51;;;;;;;4.07;1.48;;;16.70;99.90;;;;;;5045544;28;20044;-60
2023/08/22 01:12:37;;;;;;;2.97;1.30;;;16.70;99.90;;;;;;5047606;28;20067;-61
2023/08/22 01:15:24;;;;;;;5.63;1.60;;;16.70;99.90;;;;;;5042086;28;20063;-60
2023/08/22 01:17:54;;;;;;;3.30;1.58;;;16.80;99.90;;;;;;5046653;28;20212;-59
2023/08/22 01:20:24;;;;;;;5.18;1.75;;;16.80;99.90;;;;;;5047307;28;20064;-60
2023/08/22 01:22:52;;;;;;;4.03;2.10;;;16.80;99.90;;;;;;5045847;28;20045;-60
2023/08/22 01:25:26;;;;;;;5.18;2.10;;;16.80;99.90;;;;;;5046106;28;20408;-60
2023/08/22 01:28:12;;;;;;;5.40;1.95;;;16.90;99.90;;;;;;5044889;28;20049;-60
2023/08/22 01:31:01;;;;;;;5.30;2.70;;;16.90;99.90;;;;;;5042537;28;20045;-60
2023/08/22 01:33:36;;;;;;;3.90;2.28;;;16.90;99.90;;;;;;5030653;28;20053;-60
2023/08/22 01:36:07;;;;;;;5.32;2.67;;;16.90;99.90;;;;;;5044550;28;20052;-61
2023/08/22 01:38:37;;;;;;;5.43;2.80;;;17.00;99.90;;;;;;5040172;28;20041;-61
2023/08/22 01:41:07;;;;;;;5.65;2.58;;;17.00;99.90;;;;;;5049347;28;20064;-60
2023/08/22 01:43:36;;;;;;;7.30;3.13;;;17.00;99.90;;;;;;5050674;28;20056;-61
2023/08/22 01:46:05;;;;;;;5.38;3.00;;;17.00;99.90;;;;;;5042207;28;20052;-60
2023/08/22 01:48:33;;;;;;;10.73;3.00;;;17.10;99.90;;;;;;5029520;28;20046;-60
2023/08/22 01:51:01;;;;;;;4.43;3.10;;;17.10;99.90;;;;;;5031031;28;20061;-60
2023/08/22 01:53:29;;;;;;;4.95;3.20;;;17.10;99.90;;;;;;5048413;28;20049;-60
2023/08/22 01:56:00;;;;;;;5.68;3.45;;;17.10;99.90;;;;;;5050909;28;20064;-60
2023/08/22 01:58:28;;;;;;;6.28;3.92;;;17.10;99.90;;;;;;5048714;28;20388;-60
2023/08/22 02:00:55;;;;;;;8.75;4.38;;;17.10;99.90;;;;;;5032986;28;20049;-61
2023/08/22 02:03:24;;;;;;;7.57;3.83;;;17.00;99.90;;;;;;5050583;28;20052;-61
2023/08/22 02:05:53;;;;;;;9.60;4.10;;;17.00;99.90;;;;;;5049286;28;20037;-59
2023/08/22 02:08:22;;;;;;;6.10;3.88;;;16.90;99.90;;;;;;5030648;28;20053;-60
2023/08/22 02:10:50;;;;;;;11.45;3.53;;;16.80;99.90;;;;;;5049125;28;20049;-60
2023/08/22 02:13:18;;;;;;;14.40;4.10;;;16.80;99.90;;;;;;5051348;28;20041;-60
2023/08/22 02:15:45;;;;;;;6.47;3.83;;;16.70;99.90;;;;;;5052961;28;20060;-60
2023/08/22 02:18:14;;;;;;;11.68;4.07;;;16.60;99.90;;;;;;5040486;28;20068;-61
2023/08/22 02:20:41;;;;;;;9.25;4.18;;;16.60;99.90;;;;;;5051152;28;20060;-60
2023/08/22 02:23:09;;;;;;;6.93;4.10;;;16.50;99.90;;;;;;5053952;28;20045;-60
2023/08/22 02:25:37;;;;;;;6.10;3.80;;;16.50;99.90;;;;;;5046402;28;20048;-61
2023/08/22 02:28:04;;;;;;;8.52;3.80;;;16.40;99.90;;;;;;5033582;28;20528;-61
2023/08/22 02:30:34;;;;;;;7.07;3.88;;;16.40;99.90;;;;;;5049835;28;20507;-60
2023/08/22 02:33:03;;;;;;;7.55;3.65;;;16.40;99.90;;;;;;5051954;28;20485;-60
2023/08/22 02:35:31;;;;;;;5.20;3.65;;;16.30;99.90;;;;;;5045885;28;20060;-61
2023/08/22 02:37:59;;;;;;;5.35;3.78;;;16.30;99.90;;;;;;5052579;28;20064;-61
2023/08/22 02:40:26;;;;;;;9.27;3.60;;;16.20;99.90;;;;;;5044198;28;20038;-60
2023/08/22 02:42:54;;;;;;;7.88;4.07;;;16.20;99.90;;;;;;5033476;28;20042;-59
2023/08/22 02:45:22;;;;;;;8.25;3.50;;;16.20;99.90;;;;;;5033276;28;20049;-60
2023/08/22 02:47:49;;;;;;;8.00;3.70;;;16.10;99.90;;;;;;5033850;28;20045;-60
2023/08/22 02:50:17;;;;;;;7.28;3.70;;;16.10;99.90;;;;;;5045681;28;20395;-60
2023/08/22 02:52:45;;;;;;;8.07;3.75;;;16.10;99.90;;;;;;5053335;28;20052;-61
2023/08/22 02:55:13;;;;;;;8.18;3.55;;;16.10;99.90;;;;;;5046706;28;20050;-60
2023/08/22 02:57:40;;;;;;;8.68;3.65;;;16.00;99.90;;;;;;5032986;28;20056;-60
2023/08/22 03:00:13;;;;;;;8.25;4.35;;;16.00;99.90;;;;;;5047626;28;20045;-60
2023/08/22 03:02:40;;;;;;;7.32;4.20;;;16.00;99.90;;;;;;5030985;28;20065;-60
2023/08/22 03:05:13;;;;;;;8.10;3.97;;;16.00;99.90;;;;;;5015813;28;20045;-60
2023/08/22 03:07:42;;;;;;;8.07;4.25;;;16.00;99.90;;;;;;5047222;28;20055;-60
2023/08/22 03:10:12;;;;;;;;;;;16.00;99.90;;;;;;5046514;28;20071;-60
2023/08/22 03:12:43;;;;;;;5.75;3.53;;;15.90;99.90;;;;;;5052028;28;20304;-60
2023/08/22 03:15:11;;;;;;;7.35;3.72;;;15.90;99.90;;;;;;5051000;28;20052;-60
2023/08/22 03:17:41;;;;;;;6.53;3.50;;;15.90;99.90;;;;;;5051991;28;20064;-60
2023/08/22 03:20:10;;;;;;;6.35;3.42;;;15.80;99.90;;;;;;5044610;28;20056;-60
2023/08/22 03:22:38;;;;;;;8.40;3.58;;;15.80;99.90;;;;;;5039024;28;20033;-61
2023/08/22 03:25:07;;;;;;;6.70;3.40;;;15.70;99.90;;;;;;5032149;28;20052;-60
2023/08/22 03:27:37;;;;;;;6.15;2.25;;;15.80;99.90;;;;;;5051591;28;20052;-60
2023/08/22 03:30:06;;;;;;;12.05;2.83;;;15.70;99.90;;;;;;5051600;28;20044;-60
2023/08/22 03:32:35;;;;;;;4.55;2.25;;;15.70;99.90;;;;;;5048920;28;20037;-60
2023/08/22 03:35:04;;;;;;;4.38;2.35;;;15.70;99.90;;;;;;5033028;28;20047;-60
2023/08/22 03:37:34;;;;;;;4.32;2.85;;;15.60;99.90;;;;;;5047010;28;20045;-60
2023/08/22 03:40:02;;;;;;;4.40;2.50;;;15.60;99.90;;;;;;5052479;28;20393;-60
2023/08/22 03:42:30;;;;;;;5.88;2.75;;;15.60;99.90;;;;;;5033451;28;20603;-60
2023/08/22 03:45:04;;;;;;;4.45;2.50;;;15.60;99.90;;;;;;5022057;28;20041;-60
2023/08/22 03:47:32;;;;;;;5.10;2.63;;;15.60;99.90;;;;;;5052416;28;20045;-60
2023/08/22 03:50:00;;;;;;;5.60;2.00;;;15.60;99.90;;;;;;5049937;28;20041;-60
2023/08/22 03:52:30;;;;;;;5.68;2.00;;;15.60;99.90;;;;;;5042668;28;20057;-61
2023/08/22 03:54:57;;;;;;;3.70;1.85;;;15.70;99.90;;;;;;5043000;28;20057;-60
2023/08/22 03:57:25;;;;;;;2.60;1.90;;;15.70;99.90;;;;;;5042409;28;20059;-60
2023/08/22 03:59:54;;;;;;;5.85;1.92;;;15.70;99.90;;;;;;5051163;28;20048;-60
2023/08/22 04:02:22;;;;;;;3.65;1.40;;;15.70;99.90;;;;;;5050724;28;20049;-60
2023/08/22 04:04:55;;;;;;;3.00;1.25;;;15.80;99.90;;;;;;5051020;28;20053;-60
2023/08/22 04:07:26;;;;;;;3.97;1.65;;;15.90;99.90;;;;;;5055891;28;20045;-61
2023/08/22 04:09:53;;;;;;;5.07;1.35;;;15.90;99.90;;;;;;5031677;28;20045;-59
2023/08/22 04:12:21;;;;;;;4.93;1.20;;;15.90;99.90;;;;;;5032489;28;20042;-60
2023/08/22 04:14:49;;;;;;;2.72;1.15;;;15.90;99.90;;;;;;5031761;28;20131;-60
2023/08/22 04:17:16;;;;;;;1.10;1.00;;;15.80;99.90;;;;;;5030647;28;20060;-60
2023/08/22 04:19:45;;;;;;;2.22;1.10;;;15.80;99.90;;;;;;5038483;28;20040;-61
2023/08/22 04:22:14;;;;;;;3.60;1.27;;;15.70;99.90;;;;;;5049775;28;20053;-60
2023/08/22 04:24:42;;;;;;;2.72;1.20;;;15.70;99.90;;;;;;5049086;28;20053;-60
2023/08/22 04:27:10;;;;;;;1.60;1.00;;;15.60;99.90;;;;;;5030645;28;20053;-60
2023/08/22 04:29:38;;;;;;;6.80;1.27;;;15.60;99.90;;;;;;5038344;28;20481;-60
2023/08/22 04:32:06;;;;;;;3.08;1.00;;;15.50;99.90;;;;;;5034088;28;20042;-61
2023/08/22 04:34:33;;;;;;;1.15;1.00;;;15.50;99.90;;;;;;5036356;28;20033;-60
2023/08/22 04:37:03;;;;;;;1.88;1.00;;;15.50;99.90;;;;;;5073340;28;20049;-60
2023/08/22 04:39:31;;;;;;;4.28;1.05;;;15.40;99.90;;;;;;5038157;28;20037;-60
2023/08/22 04:42:08;;;;;;;4.03;1.35;;;15.40;99.90;;;;;;5050465;28;20045;-60
2023/08/22 04:44:58;;;;;;;2.95;1.20;;;15.30;99.90;;;;;;5051599;28;20055;-60
2023/08/22 04:47:26;;;;;;;1.50;1.00;;;15.30;99.90;;;;;;5023225;28;20048;-61
2023/08/22 04:49:53;;;;;;;4.20;0.80;;;15.30;99.90;;;;;;5030713;28;20049;-61
2023/08/22 04:52:21;;;;;;;2.72;1.08;;;15.20;99.90;;;;;;5030488;28;20037;-60
2023/08/22 04:54:49;;;;;;;1.48;0.73;;;15.20;99.90;;;;;;5028088;28;20041;-60
2023/08/22 04:57:20;;;;;;;2.05;0.90;;;15.10;99.90;;;;;;5045263;28;20045;-60
2023/08/22 04:59:48;;;;;;;1.50;0.90;;;15.10;99.90;;;;;;5045714;28;20037;-59
2023/08/22 05:02:15;;;;;;;3.83;0.98;;;15.10;99.90;;;;;;5021019;28;20492;-61
2023/08/22 05:04:43;;;;;;;0.85;0.80;;;15.10;99.90;;;;;;5034248;28;20053;-61
2023/08/22 05:07:11;;;;;;;2.25;0.80;;;15.50;99.90;;;;;;5041106;28;20053;-61
2023/08/22 05:09:39;;;;;;;1.65;0.80;;;15.00;99.90;;;;;;5045676;28;20049;-60
2023/08/22 05:12:07;;;;;;;1.30;0.70;;;15.10;99.90;;;;;;5044824;28;20056;-60
2023/08/22 05:14:34;;;;;;;1.67;0.85;;;15.10;99.90;;;;;;5043935;28;20053;-60
2023/08/22 05:17:03;;;;;;;1.95;1.20;;;15.10;99.90;;;;;;5038143;28;20049;-60
2023/08/22 05:19:31;;;;;;;2.83;0.88;;;15.10;99.90;;;;;;5030659;28;20053;-60
2023/08/22 05:21:59;;;;;;;5.25;1.10;;;15.10;99.90;;;;;;5035580;28;20503;-61
2023/08/22 05:24:26;;;;;;;1.83;1.10;;;15.10;99.90;;;;;;5042354;28;20510;-60
2023/08/22 05:26:55;;;;;;;2.25;1.10;;;15.10;99.90;;;;;;5043153;28;20045;-60
2023/08/22 05:29:24;;;;;;;3.58;1.38;;;15.10;99.90;;;;;;5064106;28;20040;-60
2023/08/22 05:31:53;;;;;;;1.53;1.43;;;15.10;99.90;;;;;;5047463;28;20475;-60
2023/08/22 05:34:21;;;;;;;;;;;15.10;99.90;;;;;;5032708;28;20436;-60
2023/08/22 05:36:49;;;;;;;3.33;1.27;;;15.10;99.90;;;;;;5039622;28;19924;-60
2023/08/22 05:39:17;;;;;;;2.85;1.48;;;15.10;99.90;;;;;;5045509;28;20068;-60
2023/08/22 05:41:45;;;;;;;2.22;1.30;;;15.10;99.90;;;;;;5045987;28;20045;-61
2023/08/22 05:44:13;;;;;;;2.22;1.48;;;15.10;99.90;;;;;;5057217;28;20052;-60
2023/08/22 05:46:42;;;;;;;4.10;1.48;;;15.10;99.90;;;;;;5066885;28;20060;-60
2023/08/22 05:49:10;;;;;;;4.78;1.50;;;15.20;99.90;;;;;;5039904;28;20045;-60
2023/08/22 05:51:38;;;;;;;4.70;1.40;;;15.10;99.90;;;;;;5040951;28;20496;-60
2023/08/22 05:54:06;;;;;;;3.58;1.40;;;15.20;99.90;;;;;;5049263;28;20056;-60
2023/08/22 05:56:34;;;;;;;4.95;1.60;;;15.20;99.90;;;;;;5046749;28;20052;-60
2023/08/22 05:59:02;;;;;;;1.30;1.20;;;15.20;99.90;;;;;;5037403;28;20044;-60
2023/08/22 06:01:30;;;;;;;3.35;1.50;;;15.20;99.90;;;;;;5034138;28;20048;-61
2023/08/22 06:04:01;;;;;;;3.33;1.63;;;15.20;99.90;;;;;;5047758;28;20045;-60
2023/08/22 06:06:29;;;;;;;2.70;2.00;;;15.20;99.90;;;;;;5035789;28;20533;-61
2023/08/22 06:08:57;;;;;;;4.28;1.65;;;15.20;99.90;;;;;;5048102;28;20053;-60
2023/08/22 06:11:25;;;;;;;5.90;2.08;;;15.30;99.90;;;;;;5039209;28;20518;-60
2023/08/22 06:13:55;;;;;;;3.72;1.70;;;15.30;99.90;;;;;;5057520;28;20041;-60
2023/08/22 06:16:23;;;;;;;;;;;15.30;99.90;;;;;;5049481;28;20053;-60
2023/08/22 06:18:52;;;;;;;4.50;2.00;;;15.30;99.90;;;;;;5044539;28;19955;-60
2023/08/22 06:21:20;;;;;;;4.75;1.98;;;15.30;99.90;;;;;;5036542;28;20044;-60
2023/08/22 06:23:48;;;;;;;3.70;2.30;;;15.30;99.90;;;;;;5030332;28;20053;-59
2023/08/22 06:26:16;;;;;;;5.32;1.98;;;15.40;99.90;;;;;;5046491;28;20068;-61
2023/08/22 06:28:44;;;;;;;5.75;1.88;;;15.40;99.90;;;;;;5029513;28;20052;-61
2023/08/22 06:31:12;;;;;;;3.25;1.92;;;15.40;99.90;;;;;;5032338;28;20048;-61
2023/08/22 06:33:41;;;;;;;5.32;2.08;;;15.50;99.90;;;;;;5049855;28;20041;-60
2023/08/22 06:36:08;;;;;;;6.03;2.08;;;15.60;99.90;;;;;;5036871;28;20053;-61
2023/08/22 06:38:36;;;;;;;6.32;1.90;;;15.60;99.90;;;;;;5051368;28;20048;-61
2023/08/22 06:41:05;;;;;;;4.68;1.92;;;15.60;99.90;;;;;;5040107;28;20060;-61
2023/08/22 06:43:34;;;;;;;4.18;1.27;;;15.70;99.90;;;;;;5053697;28;20053;-61
2023/08/22 06:46:02;;;;;;;3.00;1.63;;;15.70;99.90;;;;;;5069651;28;20052;-61
2023/08/22 06:48:29;;;;;;;7.28;2.10;;;15.80;99.90;;;;;;5056777;28;20048;-62
2023/08/22 06:51:09;;;;;;;3.08;1.70;;;15.90;99.90;;;;;;5031281;28;20050;-61
2023/08/22 06:53:37;;;;;;;2.88;1.63;;;15.90;99.90;;;;;;5046304;28;20041;-62
2023/08/22 06:56:04;;;;;;;4.53;1.60;;;16.00;99.90;;;;;;5029057;28;20512;-60
2023/08/22 06:58:32;;;;;;;5.03;1.58;;;16.10;99.90;;;;;;5038879;28;20049;-61
2023/08/22 07:01:00;;;;;;;4.13;1.50;;;16.10;99.90;;;;;;5041822;28;20511;-62
2023/08/22 07:03:28;;;;;;;3.45;1.65;;;16.20;99.90;;;;;;5040637;28;20037;-61
2023/08/22 07:05:58;;;;;;;4.22;1.50;;;16.20;99.90;;;;;;5040014;28;20050;-62
2023/08/22 07:08:27;;;;;;;3.38;1.80;;;16.30;99.90;;;;;;5056776;28;20374;-61
2023/08/22 07:11:02;;;;;;;4.30;1.65;;;16.30;99.90;;;;;;5050098;28;20049;-62
2023/08/22 07:13:32;;;;;;;2.90;1.40;;;16.40;99.90;;;;;;5056014;28;20049;-62
2023/08/22 07:16:00;;;;;;;2.20;1.50;;;16.40;99.90;;;;;;5047743;28;20053;-61
2023/08/22 07:18:28;;;;;;;3.13;1.30;;;16.50;99.90;;;;;;5049477;28;20400;-62
2023/08/22 07:20:56;;;;;;;5.68;1.67;;;16.50;99.90;;;;;;5045407;28;20037;-62
2023/08/22 07:23:24;;;;;;;7.30;1.95;;;16.60;99.90;;;;;;5046611;28;20041;-62
2023/08/22 07:25:52;;;;;;;5.95;1.63;;;16.60;99.90;;;;;;5038810;28;20060;-63
2023/08/22 07:28:19;;;;;;;4.93;1.50;;;16.60;99.90;;;;;;5037292;28;20049;-61
2023/08/22 07:30:47;;;;;;;4.07;1.75;;;16.70;99.90;;;;;;5034337;28;20052;-60
2023/08/22 07:33:15;;;;;;;5.38;1.45;;;16.70;99.90;;;;;;5042432;28;20056;-61
2023/08/22 07:35:44;;;;;;;5.43;1.65;;;16.80;99.90;;;;;;5026481;28;20045;-62
2023/08/22 07:38:12;;;;;;;3.20;1.23;;;16.80;99.90;;;;;;5045970;28;20045;-62
2023/08/22 07:40:41;;;;;;;3.53;1.38;;;16.90;99.90;;;;;;5037351;28;20056;-62
2023/08/22 07:43:08;;;;;;;4.07;1.40;;;16.90;99.90;;;;;;5034256;28;20041;-61
2023/08/22 07:45:36;;;;;;;4.90;1.30;;;17.00;99.90;;;;;;5041179;28;20041;-62
2023/08/22 07:48:04;;;;;;;4.43;1.40;;;17.00;99.90;;;;;;5042015;28;20347;-61
2023/08/22 07:50:32;;;;;;;5.75;1.30;;;17.10;99.90;;;;;;5032303;28;20056;-61
2023/08/22 07:53:00;;;;;;;7.45;1.52;;;17.10;99.90;;;;;;5032910;28;20049;-62
2023/08/22 07:55:27;;;;;;;5.30;1.48;;;17.20;99.90;;;;;;5044038;28;20064;-62
2023/08/22 07:57:55;;;;;;;6.13;1.38;;;17.20;99.90;;;;;;5026073;28;20211;-62
2023/08/22 08:00:23;;;;;;;3.42;1.70;;;17.30;99.90;;;;;;5034243;28;20504;-62
2023/08/22 08:02:51;;;;;;;8.45;1.63;;;17.30;99.90;;;;;;5042767;28;20480;-61
2023/08/22 08:05:19;;;;;;;4.25;1.67;;;17.30;99.90;;;;;;5037273;28;20366;-63
2023/08/22 08:07:47;;;;;;;9.82;1.52;;;17.40;99.90;;;;;;5047235;28;20041;-61
2023/08/22 08:10:15;;;;;;;5.95;1.35;;;17.40;99.90;;;;;;5048762;28;20052;-61
2023/08/22 08:12:42;;;;;;;3.72;1.02;;;17.50;99.90;;;;;;5046674;28;20061;-61
2023/08/22 08:15:10;;;;;;;6.82;1.10;;;17.60;99.90;;;;;;5046299;28;20049;-61
2023/08/22 08:17:38;;;;;;;5.18;1.63;;;17.70;99.90;;;;;;5048226;28;20041;-61
2023/08/22 08:20:10;;;;;;;5.55;1.15;;;17.80;99.90;;;;;;5047308;28;20045;-61
2023/08/22 08:22:38;;;;;;;3.30;1.00;;;18.00;99.90;;;;;;5042955;28;20041;-62
2023/08/22 08:25:06;;;;;;;8.57;1.40;;;18.00;99.90;;;;;;5047351;28;20041;-61
2023/08/22 08:27:34;;;;;;;5.28;1.33;;;18.10;99.90;;;;;;5052560;28;20052;-61
2023/08/22 08:30:05;;;;;;;3.63;1.20;;;18.20;99.90;;;;;;5068244;28;20166;-62
2023/08/22 08:32:33;;;;;;;3.70;1.20;;;18.40;99.90;;;;;;5048418;28;20041;-62
2023/08/22 08:35:00;;;;;;;4.25;1.10;;;18.50;99.90;;;;;;5035115;28;20393;-61
2023/08/22 08:37:28;;;;;;;6.65;0.88;;;18.70;99.90;;;;;;5045242;28;20053;-62
2023/08/22 08:39:56;;;;;;;5.28;1.10;;;18.80;99.90;;;;;;5030320;28;20046;-62
2023/08/22 08:42:24;;;;;;;3.92;1.38;;;18.90;99.90;;;;;;5051891;28;20430;-62
2023/08/22 08:44:52;;;;;;;4.97;0.80;;;18.90;99.90;;;;;;5047441;28;20056;-62
2023/08/22 08:47:20;;;;;;;3.13;0.80;;;18.80;99.90;;;;;;5048246;28;20048;-62
2023/08/22 08:49:48;;;;;;;2.45;1.10;;;18.80;99.90;;;;;;5047909;28;20055;-61
2023/08/22 08:52:17;;;;;;;6.00;0.98;;;18.70;99.90;;;;;;5045935;28;20044;-62
2023/08/22 08:54:47;;;;;;;6.03;0.80;;;18.70;99.90;;;;;;5045755;28;20045;-63
2023/08/22 08:57:15;;;;;;;5.55;1.17;;;18.70;99.90;;;;;;5045395;28;20385;-62
2023/08/22 08:59:43;;;;;;;6.47;0.98;;;18.80;99.90;;;;;;5047952;28;20056;-61
2023/08/22 09:02:17;;;;;;;2.10;0.80;;;18.70;99.90;;;;;;5046645;28;20694;-60
2023/08/22 09:04:45;;;;;;;2.33;0.82;;;18.90;99.90;;;;;;5047698;28;20045;-62
2023/08/22 09:07:13;;;;;;;1.67;0.73;;;19.00;99.90;;;;;;5047392;28;20049;-62
2023/08/22 09:09:41;;;;;;;4.70;0.68;;;19.20;99.90;;;;;;5045732;28;20045;-62
2023/08/22 09:12:10;;;;;;;6.88;1.00;;;19.30;99.90;;;;;;5044726;28;20057;-63
2023/08/22 09:14:45;;;;;;;4.13;0.93;;;19.50;99.90;;;;;;5044571;28;20053;-61
2023/08/22 09:17:17;;;;;;;3.60;0.75;;;19.60;99.90;;;;;;5045706;28;20048;-62
2023/08/22 09:19:45;;;;;;;2.83;0.60;;;19.70;99.90;;;;;;5046760;28;20049;-61
2023/08/22 09:22:14;;;;;;;4.85;1.00;;;19.80;99.90;;;;;;5047033;28;20408;-62
2023/08/22 09:25:00;;;;;;;3.15;1.45;;;19.90;99.90;;;;;;5049768;28;20049;-62
2023/08/22 09:27:29;;;;;;;4.47;0.55;;;20.00;99.90;;;;;;5048544;28;20045;-61
2023/08/22 09:30:04;;;;;;;6.70;1.02;;;20.00;99.90;;;;;;5040821;28;20634;-62
2023/08/22 09:32:33;;;;;;;3.20;0.82;;;19.90;99.90;;;;;;5036972;28;20563;-61
2023/08/22 09:35:02;;;;;;;6.40;0.60;;;20.00;99.90;;;;;;5041866;28;20497;-61
2023/08/22 09:37:37;;;;;;;5.25;0.95;;;20.10;99.90;;;;;;5043589;28;20045;-61
2023/08/22 09:40:09;;;;;;;7.40;1.30;;;20.20;99.90;;;;;;5046718;28;20048;-61
2023/08/22 09:42:41;;;;;;;4.13;0.95;;;20.20;99.90;;;;;;5036937;28;20052;-62
2023/08/22 09:45:10;;;;;;;3.03;0.80;;;20.10;99.90;;;;;;5031488;28;20041;-62
2023/08/22 09:47:43;;;;;;;4.28;1.25;;;20.00;99.90;;;;;;5048402;28;20045;-62
2023/08/22 09:50:16;;;;;;;4.03;0.77;;;20.00;99.90;;;;;;5051376;28;20048;-61
2023/08/22 09:52:45;;;;;;;9.98;1.20;;;20.00;99.90;;;;;;5057134;28;20048;-62
2023/08/22 09:55:14;;;;;;;4.68;0.88;;;19.90;99.90;;;;;;5036631;28;20381;-61
2023/08/22 09:57:42;;;;;;;7.60;1.25;;;19.90;99.90;;;;;;5051414;28;20404;-62
2023/08/22 10:00:12;;;;;;;4.07;0.60;;;19.90;99.90;;;;;;5051238;28;20049;-63
2023/08/22 10:02:42;;;;;;;3.92;0.80;;;19.90;99.90;;;;;;5050788;28;20045;-62
2023/08/22 10:05:12;;;;;;;1.63;0.57;;;20.00;99.90;;;;;;5051365;28;20041;-62
2023/08/22 10:07:39;;;;;;;2.88;0.68;;;20.00;99.90;;;;;;5050687;28;20131;-61
2023/08/22 10:10:08;;;;;;;8.23;1.65;;;19.90;99.90;;;;;;5032122;28;20056;-61
2023/08/22 10:12:37;;;;;;;6.15;0.90;;;19.80;99.90;;;;;;5036755;28;20051;-61
2023/08/22 10:15:07;;;;;;;3.90;1.65;;;19.70;99.90;;;;;;5050851;28;20374;-62
2023/08/22 10:17:39;;;;;;;5.57;0.93;;;19.60;99.90;;;;;;5047084;28;20049;-61
2023/08/22 10:20:11;;;;;;;3.05;0.80;;;19.60;99.90;;;;;;5050689;28;20056;-63
2023/08/22 10:22:39;;;;;;;4.65;0.98;;;19.60;99.90;;;;;;5050531;28;20388;-63
2023/08/22 10:25:07;;;;;;;5.90;0.80;;;19.50;99.90;;;;;;5049161;28;20447;-63
2023/08/22 10:27:40;;;;;;;3.83;1.00;;;19.60;99.90;;;;;;5049397;28;20052;-63
2023/08/22 10:30:18;;;;;;;3.45;0.90;;;19.60;99.90;;;;;;5049306;28;20402;-62
2023/08/22 10:33:05;;;;;;;2.53;0.60;;;19.60;99.90;;;;;;5050156;28;20505;-63
2023/08/22 10:36:15;;;;;;;2.35;0.45;;;19.70;99.90;;;;;;5049931;28;20044;-62
2023/08/22 10:38:52;;;;;;;3.03;0.50;;;19.80;99.90;;;;;;5053284;28;20136;-62
2023/08/22 10:41:21;;;;;;;6.90;0.50;;;19.90;99.90;;;;;;5032102;28;20048;-63
2023/08/22 10:43:53;;;;;;;2.15;0.60;;;20.00;99.90;;;;;;5049329;28;20139;-62
2023/08/22 10:47:00;;;;;;;5.82;0.80;;;20.00;99.90;;;;;;5048072;28;20049;-62
2023/08/22 10:49:31;;;;;;;3.08;0.82;;;20.20;99.90;;;;;;5049885;28;20045;-62
2023/08/22 10:52:09;;;;;;;2.17;0.32;;;20.30;99.90;;;;;;5049901;28;20061;-62
2023/08/22 10:55:06;;;;;;;3.88;0.80;;;20.40;99.90;;;;;;5059987;28;20051;-63
2023/08/22 10:57:36;;;;;;;3.83;0.68;;;20.60;99.90;;;;;;5038275;28;20053;-61
2023/08/22 11:00:19;;;;;;;4.72;0.77;;;20.70;99.90;;;;;;5049996;28;20040;-62
2023/08/22 11:02:57;;;;;;;2.15;0.50;;;20.80;99.90;;;;;;5049491;28;20056;-61
2023/08/22 11:05:29;;;;;;;3.25;0.75;;;20.80;99.90;;;;;;5048817;28;20048;-64
2023/08/22 11:07:57;;;;;;;4.85;0.70;;;20.80;99.90;;;;;;5048490;28;20048;-62
2023/08/22 11:10:25;;;;;;;2.22;0.68;;;20.90;99.90;;;;;;5044024;28;20052;-63
2023/08/22 11:12:56;;;;;;;3.40;0.50;;;21.10;99.90;;;;;;5038292;28;20514;-62
2023/08/22 11:15:24;;;;;;;0.98;0.43;;;21.30;99.90;;;;;;5069272;28;20503;-63
2023/08/22 11:17:52;;;;;;;5.13;0.40;;;21.50;99.90;;;;;;5060025;28;20045;-63
2023/08/22 11:20:20;;;;;;;1.70;0.70;;;21.60;99.90;;;;;;5041147;28;20049;-63
2023/08/22 11:22:49;;;;;;;2.78;0.80;;;21.60;99.90;;;;;;5030258;28;20541;-61
2023/08/22 11:25:26;;;;;;;1.63;0.40;;;21.50;99.90;;;;;;5046222;28;20064;-62
2023/08/22 11:27:54;;;;;;;1.15;0.35;;;21.40;99.90;;;;;;5046642;28;20629;-62
2023/08/22 11:30:22;;;;;;;1.10;0.40;;;21.20;99.90;;;;;;5046212;28;20048;-62
2023/08/22 11:32:50;;;;;;;6.03;0.77;;;21.10;99.90;;;;;;5049877;28;20060;-62
2023/08/22 11:35:18;;;;;;;2.55;1.15;;;20.90;99.90;;;;;;5049386;28;20041;-61
2023/08/22 11:37:46;;;;;;;5.53;0.45;;;20.90;99.90;;;;;;5056551;28;20064;-62
2023/08/22 11:40:15;;;;;;;1.42;0.40;;;20.90;99.90;;;;;;5036122;28;20642;-62
2023/08/22 11:42:47;;;;;;;4.90;0.80;;;21.00;99.90;;;;;;5030543;28;20065;-62
2023/08/22 11:45:21;;;;;;;3.85;0.68;;;21.00;99.90;;;;;;5031458;28;20045;-61
2023/08/22 11:47:52;;;;;;;2.90;0.47;;;21.10;99.90;;;;;;5046328;28;20056;-62
2023/08/22 11:50:25;;;;;;;6.05;0.40;;;21.20;99.90;;;;;;5048909;28;20045;-62
2023/08/22 11:52:57;;;;;;;8.25;0.70;;;21.20;99.90;;;;;;5049399;28;20041;-63
2023/08/22 11:55:27;;;;;;;3.80;0.43;;;21.10;99.90;;;;;;5051211;28;20044;-63
2023/08/22 11:57:59;;;;;;;4.60;0.47;;;21.10;99.90;;;;;;5041948;28;20048;-62
2023/08/22 12:00:29;;;;;;;1.83;0.50;;;21.10;99.90;;;;;;5038080;28;20050;-62
2023/08/22 12:02:59;;;;;;;3.33;0.65;;;21.10;99.90;;;;;;5030688;28;20064;-62
2023/08/22 12:05:41;;;;;;;3.50;0.40;;;21.10;99.90;;;;;;5031603;28;20049;-62
2023/08/22 12:08:11;;;;;;;2.03;0.50;;;21.20;99.90;;;;;;5041058;28;20058;-63
2023/08/22 12:10:40;;;;;;;2.63;0.43;;;21.20;99.90;;;;;;5048912;28;20500;-62
2023/08/22 12:13:09;;;;;;;4.47;0.38;;;21.20;99.90;;;;;;5047521;28;20396;-63
2023/08/22 12:15:37;;;;;;;1.38;0.30;;;21.20;99.90;;;;;;5031980;28;20045;-63
2023/08/22 12:18:05;;;;;;;0.57;0.30;;;21.20;99.90;;;;;;5043758;28;20530;-62
2023/08/22 12:20:34;;;;;;;1.35;0.30;;;21.30;99.90;;;;;;5058297;28;20049;-62
2023/08/22 12:23:02;;;;;;;1.33;0.30;;;21.30;99.90;;;;;;5047318;28;20041;-62
2023/08/22 12:25:30;;;;;;;1.23;0.30;;;21.20;99.90;;;;;;5045895;28;20515;-62
2023/08/22 12:27:58;;;;;;;1.67;0.30;;;21.10;99.90;;;;;;5048002;28;20052;-62
2023/08/22 12:30:26;;;;;;;0.50;0.30;;;21.10;99.90;;;;;;5035132;28;20068;-62
2023/08/22 12:32:54;;;;;;;0.82;0.30;;;21.10;99.90;;;;;;5028028;28;20049;-63
2023/08/22 12:35:22;;;;;;;2.55;0.63;;;21.10;99.90;;;;;;5044291;28;20393;-63
2023/08/22 12:37:50;;;;;;;0.80;0.38;;;21.10;99.90;;;;;;5056596;28;20507;-63
2023/08/22 12:40:18;;;;;;;3.80;0.50;;;21.10;99.90;;;;;;5048376;28;20043;-61
2023/08/22 12:42:46;;;;;;;2.60;0.63;;;21.10;99.90;;;;;;5044909;28;20424;-63
2023/08/22 12:45:13;;;;;;;4.47;0.40;;;21.00;99.90;;;;;;5037192;28;20064;-61
2023/08/22 12:47:42;;;;;;;0.45;0.20;;;21.00;99.90;;;;;;5031721;28;20053;-61
2023/08/22 12:50:11;;;;;;;1.67;0.30;;;21.00;99.90;;;;;;5048056;28;20040;-62
2023/08/22 12:52:39;;;;;;;2.72;0.40;;;21.10;99.90;;;;;;5048252;28;20057;-61
2023/08/22 12:55:07;;;;;;;2.13;0.50;;;21.10;99.90;;;;;;5051775;28;20055;-62
2023/08/22 12:57:37;;;;;;;0.70;0.25;;;21.10;99.90;;;;;;5047542;28;20055;-62
2023/08/22 13:00:08;;;;;;;;;;;21.10;99.90;;;;;;5039818;28;20045;-61
2023/08/22 13:02:37;;;;;;;3.53;0.60;;;21.10;99.90;;;;;;5036336;28;19932;-62